首页
METAR-TAF:

METAR-TAF

机场 :

罗兹, 波兰

纬度: 51-43-19N, 经度: 019-23-53E, 海拔: 184米

当前天气观测

该预报发布于27分钟前的15:30 UTC
风速8节,风向南转西南,在西南之间变化
温度 7°C
湿度 70%
气压 1003 hPa
能见度10公里或以上
1500米以下无云,无积雨云

METAR: EPLL 081530Z 21008KT 170V230 CAVOK 07/02 Q1003

时间: 16:57 (15:57 UTC)

预报

该预报发布于4小时和27分钟前的11:30 UTC
预报有效从08日的 12点(UTC)到 09日的 12点(UTC)
风速10节,风向西南
能见度10公里或以上
多云层高于4000英尺
几率 40% :
短暂存在
从 08日的 12点(UTC)到 08日的 21点(UTC)
风速15节,风向西南,有时为27节阵风
短暂存在
从 08日的 21点(UTC)到 09日的 03点(UTC)
能見度: 4000
多云层高于700英尺
多云层高于1400英尺
短暂存在
从 09日的 00点(UTC)到 09日的 07点(UTC)
多云层高于1400英尺

TAF: EPLL 081130Z 0812/0912 22010KT 9999 BKN040 PROB40 TEMPO 0812/0821 22015G27KT TEMPO 0821/0903 4000 RA BKN007 BKN014 TEMPO 0900/0907 BKN014

超过4000个机场的气象观测和天气预报(METAR&TAF报告)。

可查询的气象台以黄色和红色小点在地图上表示。

将鼠标移到小点上方,可查看气象台名称。

然后点击查看天气观测和预报。

如需切换地图:点击带黑十字的绿色按钮放大地图;点击带横线的绿色按钮缩小地图;或者点击绿色箭头查看邻近地区的地图。


METAR-TAF: